Time;durP1;ratioP1;P1;durP2;ratioP2;P2;SDS_P1;SDS_P2;PMS_P1;PMS_P2;Temp;Humidity;BMP_temperature;BMP_pressure;BME280_temperature;BME280_humidity;BME280_pressure;Samples;Min_cycle;Max_cycle;Signal;HPM_P1;HPM_P2
2022/11/05 00:11:11;;;;;;;8.15;3.97;;;;;;;;;;5023054;28;20173;-77
2022/11/05 00:16:42;;;;;;;9.38;3.58;;;;;;;;;;5016797;28;20050;-78
2022/11/05 00:19:09;;;;;;;15.38;3.60;;;;;;;;;;5018507;28;20050;-78
2022/11/05 00:27:11;;;;;;;16.40;4.22;;;;;;;;;;5017193;28;20061;-78
2022/11/05 00:29:38;;;;;;;12.20;4.07;;;;;;;;;;5017626;28;20077;-78
2022/11/05 00:32:06;;;;;;;18.15;4.30;;;;;;;;;;5026319;28;20128;-78
2022/11/05 00:34:33;;;;;;;17.08;4.35;;;;;;;;;;5024854;28;20407;-78
2022/11/05 00:37:00;;;;;;;9.15;3.67;;;;;;;;;;5015327;28;20053;-77
2022/11/05 00:39:28;;;;;;;14.50;3.30;;;;;;;;;;5028028;28;20509;-77
2022/11/05 00:44:59;;;;;;;9.70;2.92;;;;;;;;;;5028376;28;20058;-77
2022/11/05 00:50:13;;;;;;;11.52;4.25;;;;;;;;;;5018841;28;20113;-77
2022/11/05 00:52:56;;;;;;;11.30;3.45;;;;;;;;;;5030350;28;20049;-77
2022/11/05 00:55:24;;;;;;;12.13;3.42;;;;;;;;;;5022138;28;20062;-77
2022/11/05 00:57:51;;;;;;;15.82;3.30;;;;;;;;;;5029134;28;20049;-78
2022/11/05 01:00:19;;;;;;;9.45;3.10;;;;;;;;;;5018435;28;20054;-77
2022/11/05 01:02:46;;;;;;;10.77;3.08;;;;;;;;;;5026103;28;20050;-77
2022/11/05 01:05:14;;;;;;;5.82;2.40;;;;;;;;;;5027313;28;20053;-77
2022/11/05 01:07:41;;;;;;;11.48;3.00;;;;;;;;;;5020683;28;20133;-77
2022/11/05 01:10:09;;;;;;;8.02;2.72;;;;;;;;;;5018315;28;20069;-77
2022/11/05 01:12:36;;;;;;;6.50;2.78;;;;;;;;;;5025523;28;20048;-78
2022/11/05 01:15:04;;;;;;;10.98;2.72;;;;;;;;;;5017293;28;20050;-78
2022/11/05 01:17:31;;;;;;;7.22;2.60;;;;;;;;;;5021013;28;20050;-78
2022/11/05 01:19:59;;;;;;;10.10;2.53;;;;;;;;;;5021215;28;20105;-77
2022/11/05 01:22:26;;;;;;;9.32;2.88;;;;;;;;;;5018813;28;20495;-78
2022/11/05 01:24:53;;;;;;;8.45;3.10;;;;;;;;;;5025868;28;20061;-78
2022/11/05 01:27:21;;;;;;;10.73;2.88;;;;;;;;;;5012776;28;20073;-78
2022/11/05 01:29:48;;;;;;;21.73;3.20;;;;;;;;;;5025651;28;20590;-78
2022/11/05 01:32:16;;;;;;;7.40;2.75;;;;;;;;;;5026109;28;20140;-77
2022/11/05 01:34:43;;;;;;;15.45;2.45;;;;;;;;;;5019979;28;20917;-77
2022/11/05 01:37:12;;;;;;;9.85;2.80;;;;;;;;;;5025023;28;20046;-78
2022/11/05 01:39:40;;;;;;;17.35;3.28;;;;;;;;;;5017252;28;20141;-77
2022/11/05 01:42:14;;;;;;;35.63;3.25;;;;;;;;;;5042934;28;20049;-78
2022/11/05 01:44:58;;;;;;;30.15;3.10;;;;;;;;;;5020629;28;20038;-77
2022/11/05 01:47:28;;;;;;;47.33;4.68;;;;;;;;;;5026140;28;20150;-77
2022/11/05 01:49:58;;;;;;;7.00;2.88;;;;;;;;;;5018251;28;20058;-78
2022/11/05 01:52:30;;;;;;;12.45;3.15;;;;;;;;;;5020491;28;20054;-77
2022/11/05 01:54:58;;;;;;;10.70;2.83;;;;;;;;;;5020968;28;20064;-77
2022/11/05 01:57:26;;;;;;;7.55;3.00;;;;;;;;;;5029481;28;20058;-77
2022/11/05 01:59:56;;;;;;;8.95;3.30;;;;;;;;;;5023167;28;20099;-79
2022/11/05 02:02:24;;;;;;;6.95;2.80;;;;;;;;;;5019868;28;20120;-77
2022/11/05 02:04:54;;;;;;;6.85;3.15;;;;;;;;;;5025838;28;20085;-78
2022/11/05 02:07:23;;;;;;;12.73;3.15;;;;;;;;;;5014965;28;20062;-78
2022/11/05 02:09:53;;;;;;;8.25;3.30;;;;;;;;;;5023676;28;20509;-78
2022/11/05 02:12:20;;;;;;;8.30;3.10;;;;;;;;;;5018580;28;20204;-78
2022/11/05 02:14:51;;;;;;;11.13;3.35;;;;;;;;;;5022653;28;20061;-77
2022/11/05 02:17:18;;;;;;;14.15;3.20;;;;;;;;;;5012185;28;20042;-78
2022/11/05 02:19:45;;;;;;;10.50;3.25;;;;;;;;;;5023992;28;20054;-78
2022/11/05 02:22:25;;;;;;;8.40;3.42;;;;;;;;;;5021950;28;20145;-77
2022/11/05 02:25:11;;;;;;;9.73;2.88;;;;;;;;;;5021486;28;20054;-78
2022/11/05 02:27:41;;;;;;;9.52;2.97;;;;;;;;;;5021693;28;20054;-78
2022/11/05 02:30:24;;;;;;;18.33;3.22;;;;;;;;;;5033288;28;20104;-77
2022/11/05 02:32:57;;;;;;;12.18;3.25;;;;;;;;;;5020387;28;20126;-78
2022/11/05 02:35:25;;;;;;;10.35;3.50;;;;;;;;;;5021821;28;20089;-77
2022/11/05 02:37:53;;;;;;;13.82;3.70;;;;;;;;;;5016507;28;20054;-77
2022/11/05 02:40:30;;;;;;;7.40;3.65;;;;;;;;;;5033052;28;20403;-78
2022/11/05 02:43:14;;;;;;;19.75;4.25;;;;;;;;;;5033546;28;20058;-78
2022/11/05 02:45:51;;;;;;;13.23;4.20;;;;;;;;;;5020068;28;22430;-78
2022/11/05 02:48:21;;;;;;;18.02;4.57;;;;;;;;;;5024239;28;20068;-78
2022/11/05 02:50:52;;;;;;;11.40;4.47;;;;;;;;;;5017084;28;20058;-78
2022/11/05 02:53:26;;;;;;;19.00;4.72;;;;;;;;;;5017058;28;20806;-78
2022/11/05 02:56:00;;;;;;;13.95;4.60;;;;;;;;;;5021695;28;20145;-78
2022/11/05 02:58:31;;;;;;;15.98;4.72;;;;;;;;;;5024686;28;20137;-78
2022/11/05 03:01:00;;;;;;;10.10;4.43;;;;;;;;;;5016911;28;20065;-78
2022/11/05 03:03:36;;;;;;;10.43;4.28;;;;;;;;;;5036087;28;20069;-77
2022/11/05 03:06:23;;;;;;;12.05;4.47;;;;;;;;;;5020580;28;20058;-77
2022/11/05 03:09:06;;;;;;;14.15;4.70;;;;;;;;;;5003616;28;20048;-77
2022/11/05 03:11:46;;;;;;;13.82;4.90;;;;;;;;;;5033874;28;20054;-78
2022/11/05 03:14:16;;;;;;;18.30;5.35;;;;;;;;;;5018383;28;20058;-77
2022/11/05 03:16:59;;;;;;;18.00;5.00;;;;;;;;;;5019855;28;20042;-77
2022/11/05 03:19:27;;;;;;;15.67;5.27;;;;;;;;;;5019180;28;20049;-78
2022/11/05 03:22:00;;;;;;;13.32;5.32;;;;;;;;;;5014316;28;20054;-78
2022/11/05 03:24:34;;;;;;;27.48;5.85;;;;;;;;;;5016871;28;20158;-78
2022/11/05 03:27:04;;;;;;;12.30;4.70;;;;;;;;;;5021891;28;20779;-78
2022/11/05 03:29:41;;;;;;;17.17;5.95;;;;;;;;;;5027740;28;20507;-77
2022/11/05 03:32:09;;;;;;;26.17;5.82;;;;;;;;;;5025771;28;20056;-78
2022/11/05 03:34:39;;;;;;;27.75;6.30;;;;;;;;;;5022725;28;20050;-77
2022/11/05 03:37:07;;;;;;;23.50;6.35;;;;;;;;;;5021209;28;20066;-78
2022/11/05 03:39:40;;;;;;;21.48;6.60;;;;;;;;;;5015825;28;20100;-78
2022/11/05 03:42:09;;;;;;;27.70;7.97;;;;;;;;;;5013874;28;20929;-77
2022/11/05 03:44:39;;;;;;;26.48;7.80;;;;;;;;;;5021597;28;20054;-77
2022/11/05 03:47:08;;;;;;;16.52;6.93;;;;;;;;;;5021126;28;20078;-77
2022/11/05 03:49:38;;;;;;;18.77;7.03;;;;;;;;;;5023075;28;20132;-77
2022/11/05 03:52:07;;;;;;;19.70;7.70;;;;;;;;;;5016351;28;20050;-78
2022/11/05 03:54:35;;;;;;;18.17;7.45;;;;;;;;;;5023481;28;20046;-77
2022/11/05 03:57:03;;;;;;;18.60;7.80;;;;;;;;;;5017167;28;20515;-77
2022/11/05 03:59:31;;;;;;;23.17;8.10;;;;;;;;;;5019358;28;20064;-77
2022/11/05 04:01:58;;;;;;;27.95;7.22;;;;;;;;;;5019710;28;20050;-77
2022/11/05 04:04:26;;;;;;;25.60;7.80;;;;;;;;;;5026667;28;20681;-78
2022/11/05 04:15:10;;;;;;;26.20;7.13;;;;;;;;;;5018450;28;20062;-77
2022/11/05 04:17:38;;;;;;;20.20;7.40;;;;;;;;;;5015445;28;20054;-77
2022/11/05 04:26:05;;;;;;;25.60;7.15;;;;;;;;;;5021109;28;20062;-77
2022/11/05 04:30:17;;;;;;;27.60;8.18;;;;;;;;;;5027030;28;20050;-77
2022/11/05 04:31:19;;;;;;;20.83;8.10;;;;;;;;;;5023453;28;20058;-77
2022/11/05 04:33:46;;;;;;;21.10;8.38;;;;;;;;;;5022870;28;20509;-76
2022/11/05 04:36:13;;;;;;;24.95;8.70;;;;;;;;;;5024970;28;20042;-77
2022/11/05 04:38:41;;;;;;;28.77;8.48;;;;;;;;;;5026810;28;20052;-77
2022/11/05 04:41:12;;;;;;;26.08;8.80;;;;;;;;;;5024337;28;20061;-77
2022/11/05 04:43:40;;;;;;;38.72;9.07;;;;;;;;;;5017587;28;20050;-77
2022/11/05 04:46:08;;;;;;;29.42;9.27;;;;;;;;;;5019862;28;20061;-77
2022/11/05 04:48:35;;;;;;;21.63;8.55;;;;;;;;;;5024576;28;20104;-77
2022/11/05 04:51:02;;;;;;;17.55;8.52;;;;;;;;;;5027017;28;20057;-77
2022/11/05 04:53:30;;;;;;;18.20;8.65;;;;;;;;;;5009122;28;20050;-78
2022/11/05 04:56:10;;;;;;;17.52;8.27;;;;;;;;;;5027142;28;20207;-77
2022/11/05 04:58:43;;;;;;;26.98;8.20;;;;;;;;;;5021252;28;20125;-77
2022/11/05 05:01:17;;;;;;;20.42;7.57;;;;;;;;;;5022455;28;20133;-78
2022/11/05 05:03:49;;;;;;;20.15;8.45;;;;;;;;;;5015595;28;20574;-78
2022/11/05 05:06:16;;;;;;;17.15;8.35;;;;;;;;;;5029192;28;20059;-77
2022/11/05 05:08:44;;;;;;;21.08;7.47;;;;;;;;;;5021872;28;21051;-77
2022/11/05 05:11:12;;;;;;;16.25;7.28;;;;;;;;;;5025766;28;20056;-77
2022/11/05 05:13:40;;;;;;;17.55;7.32;;;;;;;;;;5056735;28;20050;-78
2022/11/05 05:16:07;;;;;;;17.50;7.53;;;;;;;;;;5024569;28;20092;-77
2022/11/05 05:18:35;;;;;;;16.85;7.32;;;;;;;;;;5028074;28;20046;-77
2022/11/05 05:23:50;;;;;;;22.52;7.20;;;;;;;;;;5029815;28;20132;-77
2022/11/05 05:26:17;;;;;;;21.30;6.90;;;;;;;;;;5029833;28;20058;-77
2022/11/05 05:28:47;;;;;;;20.20;6.28;;;;;;;;;;5024045;28;20058;-77
2022/11/05 05:31:14;;;;;;;17.50;6.22;;;;;;;;;;5028691;28;20995;-77
2022/11/05 05:33:41;;;;;;;28.10;6.32;;;;;;;;;;5016921;28;20046;-77
2022/11/05 05:36:09;;;;;;;20.08;6.25;;;;;;;;;;5026589;28;20053;-77
2022/11/05 05:38:37;;;;;;;12.52;5.38;;;;;;;;;;5026069;28;20136;-77
2022/11/05 05:41:04;;;;;;;15.55;5.55;;;;;;;;;;5023991;28;20500;-77
2022/11/05 05:43:32;;;;;;;22.83;6.00;;;;;;;;;;5020974;28;20755;-77
2022/11/05 05:46:03;;;;;;;9.38;4.97;;;;;;;;;;5026867;28;20054;-77
2022/11/05 05:48:30;;;;;;;11.45;5.28;;;;;;;;;;5031157;28;20084;-77
2022/11/05 05:51:01;;;;;;;16.58;5.40;;;;;;;;;;5020458;28;20046;-77
2022/11/05 05:53:29;;;;;;;15.27;5.13;;;;;;;;;;5025286;28;20050;-77
2022/11/05 05:55:57;;;;;;;12.50;5.90;;;;;;;;;;5026595;28;20169;-77
2022/11/05 05:58:28;;;;;;;10.30;4.70;;;;;;;;;;5020231;28;20834;-77
2022/11/05 06:00:55;;;;;;;11.35;5.00;;;;;;;;;;5024057;28;20059;-77
2022/11/05 06:03:22;;;;;;;13.15;5.40;;;;;;;;;;5021797;28;20113;-77
2022/11/05 06:05:49;;;;;;;16.17;5.75;;;;;;;;;;5020752;28;20058;-77
2022/11/05 06:08:16;;;;;;;26.73;6.05;;;;;;;;;;5019918;28;20054;-77
2022/11/05 06:10:50;;;;;;;11.73;5.78;;;;;;;;;;5023523;28;20047;-77
2022/11/05 06:13:17;;;;;;;11.90;5.57;;;;;;;;;;5028856;28;20057;-77
2022/11/05 06:15:46;;;;;;;16.85;5.40;;;;;;;;;;5019254;28;20097;-77
2022/11/05 06:18:14;;;;;;;11.52;5.60;;;;;;;;;;5014536;28;20084;-78
2022/11/05 06:20:41;;;;;;;16.00;6.32;;;;;;;;;;5024181;28;20038;-78
2022/11/05 06:23:09;;;;;;;21.33;5.78;;;;;;;;;;5011751;28;20078;-78
2022/11/05 06:25:37;;;;;;;12.57;5.65;;;;;;;;;;5021392;28;20747;-78
2022/11/05 06:28:07;;;;;;;12.32;5.57;;;;;;;;;;5018348;28;20483;-78
2022/11/05 06:30:34;;;;;;;13.38;5.70;;;;;;;;;;5032613;28;20050;-77
2022/11/05 06:33:05;;;;;;;12.85;5.90;;;;;;;;;;5017453;28;20129;-77
2022/11/05 06:35:32;;;;;;;18.25;5.85;;;;;;;;;;5022281;28;20065;-78
2022/11/05 06:38:00;;;;;;;14.02;5.75;;;;;;;;;;5034320;28;20108;-77
2022/11/05 06:40:28;;;;;;;15.32;5.88;;;;;;;;;;5009815;28;20057;-78
2022/11/05 06:42:55;;;;;;;15.10;5.97;;;;;;;;;;5020121;28;20057;-77
2022/11/05 06:45:23;;;;;;;14.93;6.05;;;;;;;;;;5021477;28;20057;-76
2022/11/05 06:47:56;;;;;;;20.67;6.70;;;;;;;;;;5025802;28;20466;-77
2022/11/05 06:50:24;;;;;;;21.00;7.95;;;;;;;;;;5021315;28;20051;-77
2022/11/05 06:52:54;;;;;;;19.38;7.43;;;;;;;;;;5021726;28;20874;-78
2022/11/05 06:55:22;;;;;;;23.55;7.63;;;;;;;;;;5015580;28;20101;-77
2022/11/05 06:57:49;;;;;;;24.00;7.40;;;;;;;;;;5016429;28;20042;-77
2022/11/05 07:00:18;;;;;;;18.35;7.35;;;;;;;;;;5027015;28;20138;-77
2022/11/05 07:02:46;;;;;;;22.08;7.22;;;;;;;;;;5017463;28;20042;-77
2022/11/05 07:05:14;;;;;;;23.02;7.30;;;;;;;;;;5025166;28;20058;-77
2022/11/05 07:07:41;;;;;;;18.08;7.18;;;;;;;;;;5020488;28;20960;-77
2022/11/05 07:10:11;;;;;;;23.45;8.10;;;;;;;;;;5027617;28;20125;-77
2022/11/05 07:12:39;;;;;;;18.02;9.07;;;;;;;;;;5015346;28;20058;-77
2022/11/05 07:15:06;;;;;;;15.65;7.38;;;;;;;;;;5027022;28;20117;-76
2022/11/05 07:17:34;;;;;;;23.23;7.70;;;;;;;;;;5022698;28;20077;-77
2022/11/05 07:20:02;;;;;;;23.98;8.32;;;;;;;;;;5028270;28;20049;-77
2022/11/05 07:22:29;;;;;;;26.55;8.38;;;;;;;;;;5025216;28;20049;-77
2022/11/05 07:24:57;;;;;;;18.92;7.68;;;;;;;;;;5020601;28;20058;-77
2022/11/05 07:27:24;;;;;;;19.00;8.45;;;;;;;;;;5018855;28;20515;-78
2022/11/05 07:29:52;;;;;;;19.33;8.45;;;;;;;;;;5025955;28;20053;-77
2022/11/05 07:32:20;;;;;;;18.33;9.55;;;;;;;;;;5018901;28;20054;-77
2022/11/05 07:34:47;;;;;;;26.48;10.35;;;;;;;;;;5019621;28;20053;-77
2022/11/05 07:37:17;;;;;;;23.13;9.43;;;;;;;;;;5026146;28;20053;-77
2022/11/05 07:39:46;;;;;;;23.00;9.35;;;;;;;;;;5021680;28;20058;-77
2022/11/05 07:42:13;;;;;;;24.70;9.82;;;;;;;;;;5024090;28;20057;-77
2022/11/05 07:44:41;;;;;;;18.48;8.93;;;;;;;;;;5017053;28;20110;-78
2022/11/05 07:47:09;;;;;;;24.90;10.32;;;;;;;;;;5020403;28;20054;-78
2022/11/05 07:49:36;;;;;;;24.92;9.77;;;;;;;;;;5023390;28;20132;-77
2022/11/05 07:52:03;;;;;;;21.92;10.55;;;;;;;;;;5019089;28;20050;-77
2022/11/05 07:54:31;;;;;;;24.25;10.20;;;;;;;;;;5020376;28;20050;-77
2022/11/05 07:56:58;;;;;;;23.30;10.07;;;;;;;;;;5027040;28;20065;-77
2022/11/05 07:59:25;;;;;;;24.20;11.57;;;;;;;;;;5021443;28;20105;-77
2022/11/05 08:01:52;;;;;;;21.83;10.48;;;;;;;;;;5022411;28;20050;-77
2022/11/05 08:04:20;;;;;;;26.13;11.40;;;;;;;;;;5016764;28;20046;-77
2022/11/05 08:06:47;;;;;;;28.48;11.10;;;;;;;;;;5016104;28;20084;-77
2022/11/05 08:09:15;;;;;;;21.25;10.82;;;;;;;;;;5019632;28;20051;-77
2022/11/05 08:11:42;;;;;;;22.20;10.30;;;;;;;;;;5024836;28;20052;-77
2022/11/05 08:14:12;;;;;;;33.90;11.38;;;;;;;;;;5021678;28;20061;-76
2022/11/05 08:16:40;;;;;;;20.50;9.55;;;;;;;;;;5018123;28;20053;-76
2022/11/05 08:19:07;;;;;;;19.20;10.10;;;;;;;;;;5017534;28;20491;-77
2022/11/05 08:21:34;;;;;;;32.42;10.70;;;;;;;;;;5030389;28;20510;-77
2022/11/05 08:24:02;;;;;;;19.08;9.77;;;;;;;;;;5025531;28;20521;-76
2022/11/05 08:26:29;;;;;;;18.98;8.95;;;;;;;;;;5025467;28;20512;-76
2022/11/05 08:28:56;;;;;;;26.77;10.23;;;;;;;;;;5018158;28;20096;-76
2022/11/05 08:31:23;;;;;;;24.77;11.32;;;;;;;;;;5017856;28;20076;-77
2022/11/05 08:33:52;;;;;;;19.63;9.52;;;;;;;;;;5015898;28;20510;-77
2022/11/05 08:36:25;;;;;;;22.88;10.10;;;;;;;;;;5018020;28;20057;-77
2022/11/05 08:38:52;;;;;;;21.92;9.88;;;;;;;;;;5018067;28;20141;-77
2022/11/05 08:41:22;;;;;;;20.10;9.32;;;;;;;;;;5018458;28;20502;-76
2022/11/05 08:43:55;;;;;;;18.15;9.18;;;;;;;;;;5015421;28;20807;-77
2022/11/05 08:46:22;;;;;;;21.40;8.77;;;;;;;;;;5017796;28;20058;-77
2022/11/05 08:48:52;;;;;;;21.52;9.73;;;;;;;;;;5017526;28;20081;-77
2022/11/05 08:51:20;;;;;;;15.40;8.70;;;;;;;;;;5022538;28;20050;-76
2022/11/05 08:53:47;;;;;;;15.77;7.88;;;;;;;;;;5013765;28;20137;-77
2022/11/05 08:56:15;;;;;;;20.25;8.65;;;;;;;;;;5025997;28;20517;-77
2022/11/05 08:58:42;;;;;;;15.10;8.60;;;;;;;;;;5022044;28;20109;-77
2022/11/05 09:01:09;;;;;;;16.67;8.23;;;;;;;;;;5014811;28;20081;-77
2022/11/05 09:03:36;;;;;;;11.85;7.65;;;;;;;;;;5015068;28;20050;-76
2022/11/05 09:06:07;;;;;;;16.52;7.43;;;;;;;;;;5020793;28;20053;-76
2022/11/05 09:08:34;;;;;;;14.90;7.68;;;;;;;;;;5024233;28;20049;-77
2022/11/05 09:11:01;;;;;;;13.52;7.28;;;;;;;;;;5018797;28;20050;-77
2022/11/05 09:13:28;;;;;;;14.98;7.28;;;;;;;;;;5013118;28;20054;-76
2022/11/05 09:15:58;;;;;;;16.63;6.70;;;;;;;;;;5019010;28;20112;-77
2022/11/05 09:18:25;;;;;;;17.55;8.27;;;;;;;;;;5017883;28;20054;-77
2022/11/05 09:20:53;;;;;;;15.40;7.20;;;;;;;;;;5023810;28;20053;-77
2022/11/05 09:23:20;;;;;;;12.88;6.63;;;;;;;;;;5021943;28;20042;-77
2022/11/05 09:25:48;;;;;;;13.68;7.20;;;;;;;;;;5015316;28;20089;-77
2022/11/05 09:28:21;;;;;;;13.20;7.38;;;;;;;;;;5028557;28;20045;-77
2022/11/05 09:30:50;;;;;;;11.75;6.40;;;;;;;;;;5011055;28;20054;-77
2022/11/05 09:33:21;;;;;;;12.57;6.32;;;;;;;;;;5013009;28;20042;-77
2022/11/05 09:35:52;;;;;;;16.05;6.28;;;;;;;;;;5015380;28;20879;-77
2022/11/05 09:38:19;;;;;;;9.88;5.50;;;;;;;;;;5022717;28;20062;-77
2022/11/05 09:40:53;;;;;;;12.50;6.15;;;;;;;;;;5011915;28;20043;-77
2022/11/05 09:43:23;;;;;;;12.52;6.72;;;;;;;;;;5017051;28;20049;-76
2022/11/05 09:45:59;;;;;;;12.70;6.55;;;;;;;;;;5019190;28;20137;-77
2022/11/05 09:48:29;;;;;;;13.18;6.32;;;;;;;;;;5012714;28;20049;-77
2022/11/05 09:50:57;;;;;;;11.93;5.90;;;;;;;;;;5019539;28;20051;-79
2022/11/05 09:53:25;;;;;;;9.05;5.47;;;;;;;;;;5032045;28;20081;-79
2022/11/05 09:55:56;;;;;;;19.35;5.10;;;;;;;;;;5023540;28;20050;-79
2022/11/05 09:58:42;;;;;;;10.38;5.38;;;;;;;;;;5036230;28;20050;-78
2022/11/05 10:01:20;;;;;;;8.43;4.82;;;;;;;;;;5020357;28;20074;-78
2022/11/05 10:03:49;;;;;;;12.02;6.15;;;;;;;;;;5021240;28;20145;-79
2022/11/05 10:06:21;;;;;;;18.10;6.40;;;;;;;;;;5021531;28;20066;-78
2022/11/05 10:08:54;;;;;;;14.95;5.65;;;;;;;;;;5032753;28;20885;-78
2022/11/05 10:11:24;;;;;;;11.23;4.95;;;;;;;;;;5025266;28;20058;-78
2022/11/05 10:13:54;;;;;;;9.38;4.43;;;;;;;;;;5021169;28;20462;-79
2022/11/05 10:16:33;;;;;;;11.95;4.72;;;;;;;;;;5026983;28;20081;-78
2022/11/05 10:19:08;;;;;;;9.68;3.80;;;;;;;;;;5035578;28;20050;-79
2022/11/05 10:21:39;;;;;;;10.18;4.55;;;;;;;;;;5024691;28;20053;-79
2022/11/05 10:24:27;;;;;;;11.35;5.28;;;;;;;;;;5028952;28;20054;-78
2022/11/05 10:26:55;;;;;;;10.38;4.22;;;;;;;;;;5038629;28;20084;-79
2022/11/05 10:29:28;;;;;;;8.02;4.13;;;;;;;;;;5034143;28;20150;-79
2022/11/05 10:32:00;;;;;;;9.05;4.05;;;;;;;;;;5029132;28;20061;-79
2022/11/05 10:34:30;;;;;;;8.85;3.83;;;;;;;;;;5031836;28;20897;-78
2022/11/05 10:36:58;;;;;;;9.77;4.60;;;;;;;;;;5019211;28;20058;-79
2022/11/05 10:39:29;;;;;;;9.23;4.15;;;;;;;;;;5033570;28;21193;-79
2022/11/05 10:42:15;;;;;;;10.55;3.70;;;;;;;;;;5020993;28;20050;-79
2022/11/05 10:45:02;;;;;;;7.20;3.53;;;;;;;;;;5025119;28;20046;-79
2022/11/05 10:47:41;;;;;;;9.00;4.13;;;;;;;;;;5026550;28;20054;-78
2022/11/05 10:50:15;;;;;;;9.88;3.80;;;;;;;;;;5027284;28;20027;-79
2022/11/05 10:52:53;;;;;;;9.63;4.00;;;;;;;;;;5027713;28;20053;-79
2022/11/05 10:55:20;;;;;;;7.38;3.22;;;;;;;;;;5027165;28;20148;-79
2022/11/05 10:57:51;;;;;;;9.48;3.40;;;;;;;;;;5023202;28;20062;-78
2022/11/05 11:00:20;;;;;;;8.18;3.90;;;;;;;;;;5020056;28;20089;-79
2022/11/05 11:02:54;;;;;;;9.45;3.25;;;;;;;;;;5037616;28;20062;-79
2022/11/05 11:05:23;;;;;;;8.55;3.50;;;;;;;;;;5005290;28;21030;-79
2022/11/05 11:08:02;;;;;;;8.30;3.65;;;;;;;;;;5024645;28;20038;-78
2022/11/05 11:10:36;;;;;;;7.47;3.88;;;;;;;;;;5028185;28;20144;-79
2022/11/05 11:13:03;;;;;;;10.55;4.00;;;;;;;;;;5022057;28;20458;-78
2022/11/05 11:15:31;;;;;;;11.18;4.20;;;;;;;;;;5022778;28;20054;-79
2022/11/05 11:18:17;;;;;;;8.70;4.18;;;;;;;;;;5019611;28;20077;-79
2022/11/05 11:20:45;;;;;;;10.98;4.45;;;;;;;;;;5027443;28;20081;-79
2022/11/05 11:23:14;;;;;;;7.22;3.95;;;;;;;;;;5020547;28;20141;-79
2022/11/05 11:25:52;;;;;;;10.80;4.05;;;;;;;;;;5034452;28;20050;-79
2022/11/05 11:28:31;;;;;;;8.02;4.10;;;;;;;;;;5024688;28;20058;-79
2022/11/05 11:31:05;;;;;;;7.32;3.90;;;;;;;;;;5017020;28;20054;-79
2022/11/05 11:33:33;;;;;;;12.82;4.60;;;;;;;;;;5017729;28;20105;-79
2022/11/05 11:36:04;;;;;;;9.77;4.00;;;;;;;;;;5025116;28;20057;-78
2022/11/05 11:38:33;;;;;;;6.22;3.80;;;;;;;;;;5016715;28;20074;-78
2022/11/05 11:41:03;;;;;;;8.35;3.78;;;;;;;;;;5042217;28;20097;-78
2022/11/05 11:43:32;;;;;;;7.85;3.58;;;;;;;;;;5019538;28;20054;-78
2022/11/05 11:46:04;;;;;;;7.93;3.58;;;;;;;;;;5020935;28;20136;-78
2022/11/05 11:48:40;;;;;;;6.30;3.10;;;;;;;;;;5023973;28;20050;-78
2022/11/05 11:51:18;;;;;;;8.82;3.83;;;;;;;;;;5022400;28;20045;-78
2022/11/05 11:53:47;;;;;;;11.10;6.95;;;;;;;;;;5012952;28;20058;-79
2022/11/05 11:56:16;;;;;;;12.23;4.30;;;;;;;;;;5018825;28;20054;-77
2022/11/05 11:58:50;;;;;;;7.75;3.53;;;;;;;;;;5016673;28;20093;-77
2022/11/05 12:01:36;;;;;;;11.48;4.13;;;;;;;;;;5024053;28;20144;-77
2022/11/05 12:04:27;;;;;;;10.88;4.40;;;;;;;;;;5023360;28;20141;-77
2022/11/05 12:07:13;;;;;;;11.07;4.47;;;;;;;;;;4913115;28;20143;-77
2022/11/05 12:09:52;;;;;;;8.73;4.47;;;;;;;;;;4936182;28;20737;-78
2022/11/05 12:12:25;;;;;;;9.27;4.95;;;;;;;;;;4940063;28;20165;-77
2022/11/05 12:14:59;;;;;;;10.70;4.60;;;;;;;;;;4939207;28;20557;-77
2022/11/05 12:17:44;;;;;;;10.15;4.53;;;;;;;;;;4934882;28;20146;-77
2022/11/05 12:20:31;;;;;;;15.27;5.43;;;;;;;;;;4941192;28;20058;-77
2022/11/05 12:22:58;;;;;;;8.40;5.10;;;;;;;;;;4934976;28;20058;-77
2022/11/05 12:25:25;;;;;;;8.95;4.25;;;;;;;;;;4935939;28;20171;-77
2022/11/05 12:27:59;;;;;;;11.55;4.25;;;;;;;;;;4918579;28;20147;-77
2022/11/05 12:30:29;;;;;;;10.88;4.88;;;;;;;;;;4939073;28;20058;-77
2022/11/05 12:33:09;;;;;;;14.82;5.03;;;;;;;;;;4948185;28;20142;-77
2022/11/05 12:35:45;;;;;;;7.78;3.83;;;;;;;;;;4932496;28;20685;-77
2022/11/05 12:38:26;;;;;;;8.65;4.10;;;;;;;;;;4933080;28;20066;-78
2022/11/05 12:40:55;;;;;;;7.97;3.78;;;;;;;;;;4923883;28;20138;-77
2022/11/05 12:43:23;;;;;;;10.32;4.03;;;;;;;;;;4955757;28;20081;-77
2022/11/05 12:46:09;;;;;;;7.15;3.00;;;;;;;;;;5030417;28;20924;-77
2022/11/05 12:48:39;;;;;;;8.27;3.25;;;;;;;;;;5016882;28;20058;-77
2022/11/05 12:51:09;;;;;;;14.90;3.83;;;;;;;;;;5019196;28;20101;-77
2022/11/05 12:53:55;;;;;;;7.97;3.50;;;;;;;;;;5015881;28;20050;-77
2022/11/05 12:56:29;;;;;;;9.48;3.58;;;;;;;;;;5024123;28;20065;-77
2022/11/05 12:59:00;;;;;;;7.32;3.50;;;;;;;;;;5020402;28;20054;-77
2022/11/05 13:01:34;;;;;;;11.68;3.50;;;;;;;;;;5023518;28;20060;-77
2022/11/05 13:04:07;;;;;;;7.25;3.17;;;;;;;;;;5012363;28;20081;-77
2022/11/05 13:06:40;;;;;;;11.18;3.45;;;;;;;;;;5012018;28;20062;-77
2022/11/05 13:09:11;;;;;;;7.82;3.10;;;;;;;;;;5013751;28;20049;-76
2022/11/05 13:11:46;;;;;;;11.15;3.80;;;;;;;;;;5014165;28;21205;-76
2022/11/05 13:14:13;;;;;;;9.15;3.50;;;;;;;;;;5023422;28;20053;-77
2022/11/05 13:16:44;;;;;;;7.18;3.22;;;;;;;;;;5017176;28;20101;-77
2022/11/05 13:19:20;;;;;;;9.88;3.72;;;;;;;;;;5027916;28;20752;-77
2022/11/05 13:21:50;;;;;;;6.43;3.35;;;;;;;;;;5011954;28;20108;-77
2022/11/05 13:24:20;;;;;;;8.65;3.60;;;;;;;;;;5010174;28;20334;-77
2022/11/05 13:27:00;;;;;;;6.38;3.67;;;;;;;;;;5019056;28;20053;-77
2022/11/05 13:29:36;;;;;;;8.48;3.38;;;;;;;;;;5022539;28;20050;-77
2022/11/05 13:32:26;;;;;;;5.97;2.90;;;;;;;;;;5018912;28;20581;-77
2022/11/05 13:34:59;;;;;;;7.50;3.80;;;;;;;;;;5017477;28;20062;-77
2022/11/05 13:40:21;;;;;;;8.95;3.47;;;;;;;;;;5011156;28;20062;-77
2022/11/05 13:43:01;;;;;;;11.95;4.18;;;;;;;;;;5024225;28;20108;-77
2022/11/05 13:45:47;;;;;;;11.13;4.15;;;;;;;;;;5024638;28;20057;-77
2022/11/05 13:48:33;;;;;;;10.27;4.18;;;;;;;;;;5024143;28;20054;-77
2022/11/05 13:51:10;;;;;;;6.68;3.70;;;;;;;;;;5015642;28;20137;-77
2022/11/05 13:53:56;;;;;;;13.25;3.80;;;;;;;;;;5023426;28;20061;-77
2022/11/05 13:56:31;;;;;;;9.75;3.65;;;;;;;;;;5022082;28;20054;-76
2022/11/05 13:59:14;;;;;;;8.90;3.85;;;;;;;;;;5015753;28;20085;-76
2022/11/05 14:01:54;;;;;;;7.57;3.38;;;;;;;;;;5024723;28;20064;-76
2022/11/05 14:04:54;;;;;;;6.65;3.17;;;;;;;;;;5024030;28;20046;-76
2022/11/05 14:07:29;;;;;;;8.18;3.25;;;;;;;;;;5009686;28;20057;-76
2022/11/05 14:10:01;;;;;;;8.32;3.35;;;;;;;;;;5021250;28;20054;-76
2022/11/05 14:12:30;;;;;;;7.95;3.55;;;;;;;;;;5016785;28;20058;-76
2022/11/05 14:15:04;;;;;;;8.23;3.25;;;;;;;;;;5014425;28;20148;-76
2022/11/05 14:17:33;;;;;;;8.90;3.35;;;;;;;;;;5021065;28;20057;-76
2022/11/05 14:20:20;;;;;;;9.55;3.75;;;;;;;;;;5022788;28;20046;-76
2022/11/05 14:22:47;;;;;;;6.97;3.35;;;;;;;;;;5012968;28;20058;-76
2022/11/05 14:25:18;;;;;;;6.50;3.30;;;;;;;;;;5017687;28;20057;-76
2022/11/05 14:27:53;;;;;;;11.75;3.45;;;;;;;;;;5017524;28;20045;-76
2022/11/05 14:30:39;;;;;;;14.02;3.78;;;;;;;;;;5013664;28;20483;-76
2022/11/05 14:33:14;;;;;;;10.00;3.40;;;;;;;;;;5017285;28;20073;-77
2022/11/05 14:35:41;;;;;;;5.63;2.88;;;;;;;;;;5018090;28;20078;-76
2022/11/05 14:38:19;;;;;;;7.50;3.10;;;;;;;;;;5012673;28;20046;-76
2022/11/05 14:40:47;;;;;;;10.50;3.40;;;;;;;;;;5018497;28;20059;-76
2022/11/05 14:43:18;;;;;;;8.43;3.13;;;;;;;;;;5022332;28;20050;-76
2022/11/05 14:46:01;;;;;;;8.82;3.05;;;;;;;;;;5017769;28;20141;-76
2022/11/05 14:48:29;;;;;;;9.05;2.75;;;;;;;;;;5017838;28;20114;-76
2022/11/05 14:50:58;;;;;;;8.65;3.22;;;;;;;;;;5018400;28;20056;-76
2022/11/05 14:53:34;;;;;;;7.88;3.03;;;;;;;;;;5021079;28;20054;-76
2022/11/05 14:56:01;;;;;;;8.02;3.15;;;;;;;;;;5020252;28;20062;-76
2022/11/05 14:58:31;;;;;;;7.90;2.70;;;;;;;;;;5013362;28;20049;-76
2022/11/05 15:00:59;;;;;;;9.95;3.25;;;;;;;;;;5020560;28;20054;-76
2022/11/05 15:03:29;;;;;;;11.25;3.35;;;;;;;;;;5014328;28;20049;-78
2022/11/05 15:06:16;;;;;;;10.35;2.92;;;;;;;;;;5018579;28;20068;-76
2022/11/05 15:08:49;;;;;;;6.03;2.95;;;;;;;;;;5022839;28;20058;-76
2022/11/05 15:11:17;;;;;;;5.95;2.90;;;;;;;;;;5020053;28;20100;-76
2022/11/05 15:13:53;;;;;;;8.40;3.13;;;;;;;;;;5020403;28;20057;-76
2022/11/05 15:16:20;;;;;;;;;;;;;;;;;;5019491;28;20053;-76
2022/11/05 15:18:47;;;;;;;5.88;2.78;;;;;;;;;;5019145;28;45768;-76
2022/11/05 15:21:16;;;;;;;10.70;3.25;;;;;;;;;;5020348;28;20089;-75
2022/11/05 15:23:44;;;;;;;7.28;2.97;;;;;;;;;;5022733;28;20050;-76
2022/11/05 15:26:23;;;;;;;8.55;3.15;;;;;;;;;;5020578;28;20061;-76
2022/11/05 15:28:52;;;;;;;6.53;3.10;;;;;;;;;;5022741;28;20054;-75
2022/11/05 15:31:30;;;;;;;7.63;2.97;;;;;;;;;;5019386;28;20038;-75
2022/11/05 15:34:15;;;;;;;9.07;3.15;;;;;;;;;;5021186;28;20057;-76
2022/11/05 15:36:47;;;;;;;11.13;3.80;;;;;;;;;;5018448;28;21387;-76
2022/11/05 15:39:31;;;;;;;7.70;3.35;;;;;;;;;;5021900;28;20133;-76
2022/11/05 15:42:00;;;;;;;6.88;3.10;;;;;;;;;;5020198;28;20504;-76